sensor_id;sensor_type;location;lat;lon;timestamp;P1;durP1;ratioP1;P2;durP2;ratioP2
21876;SDS011;11103;43.788;23.710;2022-07-05T00:01:00;22.50;;;12.60;;
21876;SDS011;11103;43.788;23.710;2022-07-05T00:03:26;15.10;;;12.00;;
21876;SDS011;11103;43.788;23.710;2022-07-05T00:05:53;18.20;;;11.47;;
21876;SDS011;11103;43.788;23.710;2022-07-05T00:08:18;16.07;;;11.90;;
21876;SDS011;11103;43.788;23.710;2022-07-05T00:10:44;16.23;;;12.67;;
21876;SDS011;11103;43.788;23.710;2022-07-05T00:13:09;16.37;;;12.80;;
21876;SDS011;11103;43.788;23.710;2022-07-05T00:15:35;18.17;;;12.47;;
21876;SDS011;11103;43.788;23.710;2022-07-05T00:18:00;16.90;;;12.47;;
21876;SDS011;11103;43.788;23.710;2022-07-05T00:20:26;18.30;;;12.43;;
21876;SDS011;11103;43.788;23.710;2022-07-05T00:22:51;17.00;;;12.63;;
21876;SDS011;11103;43.788;23.710;2022-07-05T00:25:17;16.80;;;12.63;;
21876;SDS011;11103;43.788;23.710;2022-07-05T00:27:42;19.13;;;11.90;;
21876;SDS011;11103;43.788;23.710;2022-07-05T00:30:08;17.47;;;12.57;;
21876;SDS011;11103;43.788;23.710;2022-07-05T00:32:35;22.40;;;12.43;;
21876;SDS011;11103;43.788;23.710;2022-07-05T00:35:03;15.97;;;12.77;;
21876;SDS011;11103;43.788;23.710;2022-07-05T00:37:30;21.47;;;11.60;;
21876;SDS011;11103;43.788;23.710;2022-07-05T00:39:56;17.63;;;12.63;;
21876;SDS011;11103;43.788;23.710;2022-07-05T00:42:21;18.73;;;12.87;;
21876;SDS011;11103;43.788;23.710;2022-07-05T00:44:47;21.83;;;12.73;;
21876;SDS011;11103;43.788;23.710;2022-07-05T00:47:13;17.63;;;12.33;;
21876;SDS011;11103;43.788;23.710;2022-07-05T00:49:38;16.57;;;12.73;;
21876;SDS011;11103;43.788;23.710;2022-07-05T00:52:06;17.47;;;12.67;;
21876;SDS011;11103;43.788;23.710;2022-07-05T00:54:32;15.63;;;11.80;;
21876;SDS011;11103;43.788;23.710;2022-07-05T00:57:01;15.00;;;12.57;;
21876;SDS011;11103;43.788;23.710;2022-07-05T00:59:28;16.27;;;12.40;;
21876;SDS011;11103;43.788;23.710;2022-07-05T01:01:54;20.17;;;12.97;;
21876;SDS011;11103;43.788;23.710;2022-07-05T01:04:20;15.83;;;12.30;;
21876;SDS011;11103;43.788;23.710;2022-07-05T01:06:46;24.13;;;12.57;;
21876;SDS011;11103;43.788;23.710;2022-07-05T01:09:15;17.00;;;12.47;;
21876;SDS011;11103;43.788;23.710;2022-07-05T01:11:48;17.13;;;12.23;;
21876;SDS011;11103;43.788;23.710;2022-07-05T01:14:18;16.70;;;12.00;;
21876;SDS011;11103;43.788;23.710;2022-07-05T01:16:45;18.37;;;12.83;;
21876;SDS011;11103;43.788;23.710;2022-07-05T01:19:11;18.90;;;12.60;;
21876;SDS011;11103;43.788;23.710;2022-07-05T01:21:39;18.07;;;12.53;;
21876;SDS011;11103;43.788;23.710;2022-07-05T01:24:13;21.63;;;12.70;;
21876;SDS011;11103;43.788;23.710;2022-07-05T01:26:41;18.03;;;12.57;;
21876;SDS011;11103;43.788;23.710;2022-07-05T01:29:07;16.40;;;12.80;;
21876;SDS011;11103;43.788;23.710;2022-07-05T01:31:37;19.33;;;12.73;;
21876;SDS011;11103;43.788;23.710;2022-07-05T01:34:10;17.30;;;12.13;;
21876;SDS011;11103;43.788;23.710;2022-07-05T01:36:36;19.00;;;13.33;;
21876;SDS011;11103;43.788;23.710;2022-07-05T01:39:05;19.77;;;13.03;;
21876;SDS011;11103;43.788;23.710;2022-07-05T01:41:31;17.67;;;13.43;;
21876;SDS011;11103;43.788;23.710;2022-07-05T01:43:59;21.67;;;13.57;;
21876;SDS011;11103;43.788;23.710;2022-07-05T01:46:25;18.33;;;12.73;;
21876;SDS011;11103;43.788;23.710;2022-07-05T01:48:56;21.07;;;13.27;;
21876;SDS011;11103;43.788;23.710;2022-07-05T01:51:27;19.40;;;13.43;;
21876;SDS011;11103;43.788;23.710;2022-07-05T01:53:58;16.57;;;13.10;;
21876;SDS011;11103;43.788;23.710;2022-07-05T01:56:23;22.00;;;14.23;;
21876;SDS011;11103;43.788;23.710;2022-07-05T01:58:48;21.30;;;14.23;;
21876;SDS011;11103;43.788;23.710;2022-07-05T02:01:30;22.13;;;14.77;;
21876;SDS011;11103;43.788;23.710;2022-07-05T02:03:57;21.07;;;16.30;;
21876;SDS011;11103;43.788;23.710;2022-07-05T02:06:22;23.13;;;15.17;;
21876;SDS011;11103;43.788;23.710;2022-07-05T02:08:48;21.13;;;16.63;;
21876;SDS011;11103;43.788;23.710;2022-07-05T02:11:13;20.57;;;15.73;;
21876;SDS011;11103;43.788;23.710;2022-07-05T02:13:38;20.73;;;15.77;;
21876;SDS011;11103;43.788;23.710;2022-07-05T02:16:04;27.87;;;17.47;;
21876;SDS011;11103;43.788;23.710;2022-07-05T02:18:29;24.23;;;17.07;;
21876;SDS011;11103;43.788;23.710;2022-07-05T02:20:55;22.33;;;17.13;;
21876;SDS011;11103;43.788;23.710;2022-07-05T02:23:20;26.13;;;17.37;;
21876;SDS011;11103;43.788;23.710;2022-07-05T02:25:45;22.03;;;17.97;;
21876;SDS011;11103;43.788;23.710;2022-07-05T02:28:11;27.00;;;17.73;;
21876;SDS011;11103;43.788;23.710;2022-07-05T02:30:37;25.77;;;18.00;;
21876;SDS011;11103;43.788;23.710;2022-07-05T02:33:02;24.77;;;18.80;;
21876;SDS011;11103;43.788;23.710;2022-07-05T02:35:27;27.10;;;18.47;;
21876;SDS011;11103;43.788;23.710;2022-07-05T02:37:55;23.27;;;17.60;;
21876;SDS011;11103;43.788;23.710;2022-07-05T02:40:20;22.37;;;17.30;;
21876;SDS011;11103;43.788;23.710;2022-07-05T02:42:46;29.67;;;18.87;;
21876;SDS011;11103;43.788;23.710;2022-07-05T02:45:11;23.77;;;18.30;;
21876;SDS011;11103;43.788;23.710;2022-07-05T02:47:37;25.60;;;18.17;;
21876;SDS011;11103;43.788;23.710;2022-07-05T02:52:34;25.83;;;18.77;;
21876;SDS011;11103;43.788;23.710;2022-07-05T02:55:00;26.30;;;17.97;;
21876;SDS011;11103;43.788;23.710;2022-07-05T02:57:26;26.40;;;18.50;;
21876;SDS011;11103;43.788;23.710;2022-07-05T02:59:53;24.00;;;18.03;;
21876;SDS011;11103;43.788;23.710;2022-07-05T03:02:19;23.93;;;18.83;;
21876;SDS011;11103;43.788;23.710;2022-07-05T03:04:45;24.47;;;18.47;;
21876;SDS011;11103;43.788;23.710;2022-07-05T03:07:10;25.93;;;18.13;;
21876;SDS011;11103;43.788;23.710;2022-07-05T03:09:36;26.60;;;18.57;;
21876;SDS011;11103;43.788;23.710;2022-07-05T03:12:01;28.40;;;19.23;;
21876;SDS011;11103;43.788;23.710;2022-07-05T03:14:27;26.57;;;18.17;;
21876;SDS011;11103;43.788;23.710;2022-07-05T03:16:52;26.03;;;18.33;;
21876;SDS011;11103;43.788;23.710;2022-07-05T03:19:18;24.37;;;18.43;;
21876;SDS011;11103;43.788;23.710;2022-07-05T03:21:43;28.37;;;19.03;;
21876;SDS011;11103;43.788;23.710;2022-07-05T03:24:09;27.47;;;18.63;;
21876;SDS011;11103;43.788;23.710;2022-07-05T03:26:34;30.17;;;19.20;;
21876;SDS011;11103;43.788;23.710;2022-07-05T03:29:00;27.63;;;18.97;;
21876;SDS011;11103;43.788;23.710;2022-07-05T03:31:25;24.77;;;19.20;;
21876;SDS011;11103;43.788;23.710;2022-07-05T03:33:51;26.83;;;18.60;;
21876;SDS011;11103;43.788;23.710;2022-07-05T03:36:16;24.73;;;18.70;;
21876;SDS011;11103;43.788;23.710;2022-07-05T03:38:41;25.10;;;18.50;;
21876;SDS011;11103;43.788;23.710;2022-07-05T03:41:07;26.23;;;18.93;;
21876;SDS011;11103;43.788;23.710;2022-07-05T03:43:32;23.80;;;18.27;;
21876;SDS011;11103;43.788;23.710;2022-07-05T03:45:58;22.20;;;18.57;;
21876;SDS011;11103;43.788;23.710;2022-07-05T03:48:23;31.07;;;19.23;;
21876;SDS011;11103;43.788;23.710;2022-07-05T03:50:48;28.47;;;18.80;;
21876;SDS011;11103;43.788;23.710;2022-07-05T03:53:14;27.13;;;19.57;;
21876;SDS011;11103;43.788;23.710;2022-07-05T03:55:40;26.10;;;19.10;;
21876;SDS011;11103;43.788;23.710;2022-07-05T03:58:06;26.40;;;19.33;;
21876;SDS011;11103;43.788;23.710;2022-07-05T04:00:31;26.17;;;18.23;;
21876;SDS011;11103;43.788;23.710;2022-07-05T04:02:57;25.33;;;18.67;;
21876;SDS011;11103;43.788;23.710;2022-07-05T04:05:22;24.83;;;18.33;;
21876;SDS011;11103;43.788;23.710;2022-07-05T04:07:49;25.83;;;18.10;;
21876;SDS011;11103;43.788;23.710;2022-07-05T04:10:14;23.13;;;16.93;;
21876;SDS011;11103;43.788;23.710;2022-07-05T04:12:42;25.27;;;17.23;;
21876;SDS011;11103;43.788;23.710;2022-07-05T04:15:07;26.87;;;18.30;;
21876;SDS011;11103;43.788;23.710;2022-07-05T04:17:33;24.53;;;17.23;;
21876;SDS011;11103;43.788;23.710;2022-07-05T04:19:59;22.27;;;16.47;;
21876;SDS011;11103;43.788;23.710;2022-07-05T04:22:24;23.73;;;16.93;;
21876;SDS011;11103;43.788;23.710;2022-07-05T04:24:50;27.70;;;17.77;;
21876;SDS011;11103;43.788;23.710;2022-07-05T04:27:34;24.27;;;17.03;;
21876;SDS011;11103;43.788;23.710;2022-07-05T04:29:59;24.60;;;16.87;;
21876;SDS011;11103;43.788;23.710;2022-07-05T04:32:25;24.40;;;16.60;;
21876;SDS011;11103;43.788;23.710;2022-07-05T04:34:51;24.70;;;17.20;;
21876;SDS011;11103;43.788;23.710;2022-07-05T04:37:16;23.27;;;17.00;;
21876;SDS011;11103;43.788;23.710;2022-07-05T04:39:42;26.17;;;16.33;;
21876;SDS011;11103;43.788;23.710;2022-07-05T04:42:07;25.03;;;17.37;;
21876;SDS011;11103;43.788;23.710;2022-07-05T04:44:33;22.97;;;16.00;;
21876;SDS011;11103;43.788;23.710;2022-07-05T04:46:58;24.03;;;16.23;;
21876;SDS011;11103;43.788;23.710;2022-07-05T04:49:24;23.87;;;16.43;;
21876;SDS011;11103;43.788;23.710;2022-07-05T04:51:49;27.13;;;16.73;;
21876;SDS011;11103;43.788;23.710;2022-07-05T04:54:14;28.53;;;16.40;;
21876;SDS011;11103;43.788;23.710;2022-07-05T04:56:40;22.43;;;15.83;;
21876;SDS011;11103;43.788;23.710;2022-07-05T04:59:05;23.37;;;17.43;;
21876;SDS011;11103;43.788;23.710;2022-07-05T05:01:31;27.77;;;16.93;;
21876;SDS011;11103;43.788;23.710;2022-07-05T05:03:56;42.33;;;29.87;;
21876;SDS011;11103;43.788;23.710;2022-07-05T05:06:21;26.77;;;16.87;;
21876;SDS011;11103;43.788;23.710;2022-07-05T05:08:47;34.00;;;23.13;;
21876;SDS011;11103;43.788;23.710;2022-07-05T05:11:12;22.27;;;16.70;;
21876;SDS011;11103;43.788;23.710;2022-07-05T05:13:38;22.80;;;16.17;;
21876;SDS011;11103;43.788;23.710;2022-07-05T05:16:03;19.43;;;15.07;;
21876;SDS011;11103;43.788;23.710;2022-07-05T05:18:29;23.97;;;15.33;;
21876;SDS011;11103;43.788;23.710;2022-07-05T05:20:54;23.60;;;15.13;;
21876;SDS011;11103;43.788;23.710;2022-07-05T05:23:20;28.27;;;15.70;;
21876;SDS011;11103;43.788;23.710;2022-07-05T05:25:47;20.40;;;14.77;;
21876;SDS011;11103;43.788;23.710;2022-07-05T05:28:13;19.40;;;14.73;;
21876;SDS011;11103;43.788;23.710;2022-07-05T05:30:39;20.93;;;15.17;;
21876;SDS011;11103;43.788;23.710;2022-07-05T05:33:04;26.70;;;21.50;;
21876;SDS011;11103;43.788;23.710;2022-07-05T05:35:29;108.37;;;74.83;;
21876;SDS011;11103;43.788;23.710;2022-07-05T05:37:55;30.97;;;21.87;;
21876;SDS011;11103;43.788;23.710;2022-07-05T05:40:21;37.47;;;26.33;;
21876;SDS011;11103;43.788;23.710;2022-07-05T05:42:48;19.67;;;15.63;;
21876;SDS011;11103;43.788;23.710;2022-07-05T05:45:14;21.00;;;15.37;;
21876;SDS011;11103;43.788;23.710;2022-07-05T05:47:47;21.13;;;13.47;;
21876;SDS011;11103;43.788;23.710;2022-07-05T05:50:21;19.90;;;14.40;;
21876;SDS011;11103;43.788;23.710;2022-07-05T05:52:48;19.23;;;13.57;;
21876;SDS011;11103;43.788;23.710;2022-07-05T05:55:14;17.40;;;12.83;;
21876;SDS011;11103;43.788;23.710;2022-07-05T05:57:39;17.80;;;13.77;;
21876;SDS011;11103;43.788;23.710;2022-07-05T06:00:05;22.40;;;13.63;;
21876;SDS011;11103;43.788;23.710;2022-07-05T06:02:32;19.37;;;13.40;;
21876;SDS011;11103;43.788;23.710;2022-07-05T06:04:59;18.93;;;14.10;;
21876;SDS011;11103;43.788;23.710;2022-07-05T06:07:24;17.90;;;13.53;;
21876;SDS011;11103;43.788;23.710;2022-07-05T06:09:50;18.73;;;13.50;;
21876;SDS011;11103;43.788;23.710;2022-07-05T06:12:15;18.60;;;13.07;;
21876;SDS011;11103;43.788;23.710;2022-07-05T06:14:41;19.13;;;12.93;;
21876;SDS011;11103;43.788;23.710;2022-07-05T06:17:06;23.27;;;13.40;;
21876;SDS011;11103;43.788;23.710;2022-07-05T06:19:32;17.80;;;13.40;;
21876;SDS011;11103;43.788;23.710;2022-07-05T06:21:57;18.93;;;12.90;;
21876;SDS011;11103;43.788;23.710;2022-07-05T06:24:23;20.77;;;13.50;;
21876;SDS011;11103;43.788;23.710;2022-07-05T06:26:48;15.87;;;13.00;;
21876;SDS011;11103;43.788;23.710;2022-07-05T06:29:13;21.13;;;13.10;;
21876;SDS011;11103;43.788;23.710;2022-07-05T06:31:39;15.67;;;12.27;;
21876;SDS011;11103;43.788;23.710;2022-07-05T06:34:04;15.80;;;11.73;;
21876;SDS011;11103;43.788;23.710;2022-07-05T06:36:30;17.87;;;12.40;;
21876;SDS011;11103;43.788;23.710;2022-07-05T06:38:55;14.50;;;11.07;;
21876;SDS011;11103;43.788;23.710;2022-07-05T06:41:21;19.30;;;12.47;;
21876;SDS011;11103;43.788;23.710;2022-07-05T06:43:46;20.37;;;12.50;;
21876;SDS011;11103;43.788;23.710;2022-07-05T06:46:11;16.27;;;12.27;;
21876;SDS011;11103;43.788;23.710;2022-07-05T06:48:37;19.90;;;12.30;;
21876;SDS011;11103;43.788;23.710;2022-07-05T06:51:02;13.90;;;11.13;;
21876;SDS011;11103;43.788;23.710;2022-07-05T06:53:28;16.10;;;12.13;;
21876;SDS011;11103;43.788;23.710;2022-07-05T06:55:59;14.47;;;10.50;;
21876;SDS011;11103;43.788;23.710;2022-07-05T06:58:25;16.40;;;10.93;;
21876;SDS011;11103;43.788;23.710;2022-07-05T07:00:50;14.63;;;11.77;;
21876;SDS011;11103;43.788;23.710;2022-07-05T07:03:16;17.87;;;11.43;;
21876;SDS011;11103;43.788;23.710;2022-07-05T07:05:41;15.80;;;11.87;;
21876;SDS011;11103;43.788;23.710;2022-07-05T07:08:07;17.23;;;11.00;;
21876;SDS011;11103;43.788;23.710;2022-07-05T07:10:51;14.40;;;11.43;;
21876;SDS011;11103;43.788;23.710;2022-07-05T07:13:17;14.67;;;11.10;;
21876;SDS011;11103;43.788;23.710;2022-07-05T07:15:44;14.87;;;11.20;;
21876;SDS011;11103;43.788;23.710;2022-07-05T07:18:11;22.97;;;11.67;;
21876;SDS011;11103;43.788;23.710;2022-07-05T07:20:37;15.20;;;10.37;;
21876;SDS011;11103;43.788;23.710;2022-07-05T07:23:02;14.97;;;11.40;;
21876;SDS011;11103;43.788;23.710;2022-07-05T07:25:27;15.43;;;11.27;;
21876;SDS011;11103;43.788;23.710;2022-07-05T07:27:54;20.43;;;12.03;;
21876;SDS011;11103;43.788;23.710;2022-07-05T07:30:24;22.43;;;11.93;;
21876;SDS011;11103;43.788;23.710;2022-07-05T07:32:51;65.83;;;42.07;;
21876;SDS011;11103;43.788;23.710;2022-07-05T07:35:17;26.20;;;17.50;;
21876;SDS011;11103;43.788;23.710;2022-07-05T07:37:43;21.70;;;14.00;;
21876;SDS011;11103;43.788;23.710;2022-07-05T07:40:09;14.80;;;11.53;;
21876;SDS011;11103;43.788;23.710;2022-07-05T07:42:35;17.40;;;10.77;;
21876;SDS011;11103;43.788;23.710;2022-07-05T07:45:01;12.57;;;9.93;;
21876;SDS011;11103;43.788;23.710;2022-07-05T07:47:31;16.50;;;10.60;;
21876;SDS011;11103;43.788;23.710;2022-07-05T07:49:57;14.77;;;10.40;;
21876;SDS011;11103;43.788;23.710;2022-07-05T07:52:26;13.77;;;10.23;;
21876;SDS011;11103;43.788;23.710;2022-07-05T07:54:51;13.63;;;10.33;;
21876;SDS011;11103;43.788;23.710;2022-07-05T07:57:17;13.43;;;9.73;;
21876;SDS011;11103;43.788;23.710;2022-07-05T07:59:43;13.20;;;9.27;;
21876;SDS011;11103;43.788;23.710;2022-07-05T08:02:09;13.83;;;10.50;;
21876;SDS011;11103;43.788;23.710;2022-07-05T08:04:35;15.47;;;11.00;;
21876;SDS011;11103;43.788;23.710;2022-07-05T08:07:01;16.13;;;10.93;;
21876;SDS011;11103;43.788;23.710;2022-07-05T08:09:28;12.50;;;10.63;;
21876;SDS011;11103;43.788;23.710;2022-07-05T08:11:54;17.87;;;11.53;;
21876;SDS011;11103;43.788;23.710;2022-07-05T08:14:19;13.87;;;10.50;;
21876;SDS011;11103;43.788;23.710;2022-07-05T08:16:46;23.93;;;13.63;;
21876;SDS011;11103;43.788;23.710;2022-07-05T08:19:13;26.83;;;16.83;;
21876;SDS011;11103;43.788;23.710;2022-07-05T08:21:57;14.90;;;10.43;;
21876;SDS011;11103;43.788;23.710;2022-07-05T08:24:23;15.43;;;10.00;;
21876;SDS011;11103;43.788;23.710;2022-07-05T08:26:48;12.93;;;9.77;;
21876;SDS011;11103;43.788;23.710;2022-07-05T08:29:14;24.70;;;9.87;;
21876;SDS011;11103;43.788;23.710;2022-07-05T08:31:44;12.13;;;9.50;;
21876;SDS011;11103;43.788;23.710;2022-07-05T08:34:11;21.20;;;10.40;;
21876;SDS011;11103;43.788;23.710;2022-07-05T08:36:37;23.80;;;10.50;;
21876;SDS011;11103;43.788;23.710;2022-07-05T08:39:04;12.83;;;9.70;;
21876;SDS011;11103;43.788;23.710;2022-07-05T08:41:31;15.00;;;10.13;;
21876;SDS011;11103;43.788;23.710;2022-07-05T08:43:59;18.70;;;9.90;;
21876;SDS011;11103;43.788;23.710;2022-07-05T08:46:26;13.87;;;9.67;;
21876;SDS011;11103;43.788;23.710;2022-07-05T08:48:55;13.10;;;9.67;;
21876;SDS011;11103;43.788;23.710;2022-07-05T08:51:23;15.07;;;9.20;;
21876;SDS011;11103;43.788;23.710;2022-07-05T08:53:51;11.60;;;9.60;;
21876;SDS011;11103;43.788;23.710;2022-07-05T08:56:18;12.27;;;9.37;;
21876;SDS011;11103;43.788;23.710;2022-07-05T08:58:44;13.43;;;10.37;;
21876;SDS011;11103;43.788;23.710;2022-07-05T09:01:11;16.17;;;9.87;;
21876;SDS011;11103;43.788;23.710;2022-07-05T09:03:48;15.60;;;10.23;;
21876;SDS011;11103;43.788;23.710;2022-07-05T09:06:19;14.10;;;9.10;;
21876;SDS011;11103;43.788;23.710;2022-07-05T09:08:48;16.23;;;10.17;;
21876;SDS011;11103;43.788;23.710;2022-07-05T09:11:16;16.60;;;9.87;;
21876;SDS011;11103;43.788;23.710;2022-07-05T09:13:43;15.07;;;8.83;;
21876;SDS011;11103;43.788;23.710;2022-07-05T09:16:13;12.50;;;8.40;;
21876;SDS011;11103;43.788;23.710;2022-07-05T09:21:14;15.70;;;9.90;;
21876;SDS011;11103;43.788;23.710;2022-07-05T09:23:40;16.03;;;9.70;;
21876;SDS011;11103;43.788;23.710;2022-07-05T09:26:07;18.40;;;9.67;;
21876;SDS011;11103;43.788;23.710;2022-07-05T09:28:33;13.53;;;9.20;;
21876;SDS011;11103;43.788;23.710;2022-07-05T09:30:59;15.00;;;8.40;;
21876;SDS011;11103;43.788;23.710;2022-07-05T09:33:24;14.57;;;9.20;;
21876;SDS011;11103;43.788;23.710;2022-07-05T09:35:53;13.70;;;9.70;;
21876;SDS011;11103;43.788;23.710;2022-07-05T09:38:22;11.10;;;8.47;;
21876;SDS011;11103;43.788;23.710;2022-07-05T09:40:55;11.57;;;9.17;;
21876;SDS011;11103;43.788;23.710;2022-07-05T09:43:23;12.97;;;9.20;;
21876;SDS011;11103;43.788;23.710;2022-07-05T09:45:57;10.67;;;9.20;;
21876;SDS011;11103;43.788;23.710;2022-07-05T09:48:23;9.80;;;8.40;;
21876;SDS011;11103;43.788;23.710;2022-07-05T09:50:49;14.00;;;8.50;;
21876;SDS011;11103;43.788;23.710;2022-07-05T09:53:17;11.17;;;8.60;;
21876;SDS011;11103;43.788;23.710;2022-07-05T09:56:01;12.10;;;8.73;;
21876;SDS011;11103;43.788;23.710;2022-07-05T09:58:27;10.60;;;8.17;;
21876;SDS011;11103;43.788;23.710;2022-07-05T10:00:53;7.90;;;6.67;;
21876;SDS011;11103;43.788;23.710;2022-07-05T10:03:18;12.07;;;7.57;;
21876;SDS011;11103;43.788;23.710;2022-07-05T10:05:44;10.37;;;8.13;;
21876;SDS011;11103;43.788;23.710;2022-07-05T10:08:09;10.67;;;8.03;;
21876;SDS011;11103;43.788;23.710;2022-07-05T10:10:38;9.13;;;7.77;;
21876;SDS011;11103;43.788;23.710;2022-07-05T10:13:04;11.90;;;8.07;;
21876;SDS011;11103;43.788;23.710;2022-07-05T10:15:35;12.90;;;7.90;;
21876;SDS011;11103;43.788;23.710;2022-07-05T10:20:35;14.63;;;8.20;;
21876;SDS011;11103;43.788;23.710;2022-07-05T10:23:07;12.60;;;8.60;;
21876;SDS011;11103;43.788;23.710;2022-07-05T10:25:35;10.67;;;8.13;;
21876;SDS011;11103;43.788;23.710;2022-07-05T10:28:02;12.83;;;9.03;;
21876;SDS011;11103;43.788;23.710;2022-07-05T10:30:28;9.63;;;8.20;;
21876;SDS011;11103;43.788;23.710;2022-07-05T10:32:54;14.40;;;8.90;;
21876;SDS011;11103;43.788;23.710;2022-07-05T10:35:20;10.97;;;8.03;;
21876;SDS011;11103;43.788;23.710;2022-07-05T10:37:47;14.00;;;7.63;;
21876;SDS011;11103;43.788;23.710;2022-07-05T10:40:14;11.83;;;8.43;;
21876;SDS011;11103;43.788;23.710;2022-07-05T10:42:44;11.50;;;8.80;;
21876;SDS011;11103;43.788;23.710;2022-07-05T10:45:26;13.67;;;8.47;;
21876;SDS011;11103;43.788;23.710;2022-07-05T10:53:15;12.07;;;8.47;;
21876;SDS011;11103;43.788;23.710;2022-07-05T11:03:37;11.23;;;8.33;;
21876;SDS011;11103;43.788;23.710;2022-07-05T11:06:20;8.80;;;7.93;;
21876;SDS011;11103;43.788;23.710;2022-07-05T11:11:24;11.27;;;8.47;;
21876;SDS011;11103;43.788;23.710;2022-07-05T11:13:53;13.20;;;8.53;;
21876;SDS011;11103;43.788;23.710;2022-07-05T11:16:23;11.17;;;8.03;;
21876;SDS011;11103;43.788;23.710;2022-07-05T11:18:49;11.10;;;7.10;;
21876;SDS011;11103;43.788;23.710;2022-07-05T11:21:20;15.30;;;11.03;;
21876;SDS011;11103;43.788;23.710;2022-07-05T11:23:47;11.67;;;7.13;;
21876;SDS011;11103;43.788;23.710;2022-07-05T11:26:13;14.60;;;8.20;;
21876;SDS011;11103;43.788;23.710;2022-07-05T11:28:42;11.95;;;8.48;;
21876;SDS011;11103;43.788;23.710;2022-07-05T11:31:09;9.90;;;8.00;;
21876;SDS011;11103;43.788;23.710;2022-07-05T11:33:38;11.15;;;8.38;;
21876;SDS011;11103;43.788;23.710;2022-07-05T11:36:05;14.50;;;7.85;;
21876;SDS011;11103;43.788;23.710;2022-07-05T11:38:32;9.55;;;8.30;;
21876;SDS011;11103;43.788;23.710;2022-07-05T11:41:10;9.10;;;8.17;;
21876;SDS011;11103;43.788;23.710;2022-07-05T11:43:38;9.40;;;8.40;;
21876;SDS011;11103;43.788;23.710;2022-07-05T11:46:06;15.50;;;8.93;;
21876;SDS011;11103;43.788;23.710;2022-07-05T11:48:31;12.37;;;7.83;;
21876;SDS011;11103;43.788;23.710;2022-07-05T11:50:57;10.43;;;7.57;;
21876;SDS011;11103;43.788;23.710;2022-07-05T11:53:25;12.77;;;8.50;;
21876;SDS011;11103;43.788;23.710;2022-07-05T11:55:56;11.43;;;7.90;;
21876;SDS011;11103;43.788;23.710;2022-07-05T11:58:30;10.55;;;8.13;;
21876;SDS011;11103;43.788;23.710;2022-07-05T12:00:57;8.60;;;6.85;;
21876;SDS011;11103;43.788;23.710;2022-07-05T12:03:22;11.70;;;7.20;;
21876;SDS011;11103;43.788;23.710;2022-07-05T12:05:48;7.93;;;6.78;;
21876;SDS011;11103;43.788;23.710;2022-07-05T12:08:23;10.38;;;7.10;;
21876;SDS011;11103;43.788;23.710;2022-07-05T12:10:49;11.25;;;7.20;;
21876;SDS011;11103;43.788;23.710;2022-07-05T12:13:44;14.13;;;7.63;;
21876;SDS011;11103;43.788;23.710;2022-07-05T12:16:11;8.38;;;6.78;;
21876;SDS011;11103;43.788;23.710;2022-07-05T12:21:32;12.02;;;6.82;;
21876;SDS011;11103;43.788;23.710;2022-07-05T12:23:58;8.55;;;6.95;;
21876;SDS011;11103;43.788;23.710;2022-07-05T12:26:23;10.85;;;7.70;;
21876;SDS011;11103;43.788;23.710;2022-07-05T12:28:49;7.88;;;7.05;;
21876;SDS011;11103;43.788;23.710;2022-07-05T12:31:16;10.25;;;7.57;;
21876;SDS011;11103;43.788;23.710;2022-07-05T12:33:42;11.10;;;7.63;;
21876;SDS011;11103;43.788;23.710;2022-07-05T12:36:12;10.87;;;7.47;;
21876;SDS011;11103;43.788;23.710;2022-07-05T12:38:38;17.07;;;7.63;;
21876;SDS011;11103;43.788;23.710;2022-07-05T12:41:04;8.93;;;7.30;;
21876;SDS011;11103;43.788;23.710;2022-07-05T12:43:29;9.80;;;6.87;;
21876;SDS011;11103;43.788;23.710;2022-07-05T12:46:00;12.35;;;6.50;;
21876;SDS011;11103;43.788;23.710;2022-07-05T12:48:35;10.70;;;6.55;;
21876;SDS011;11103;43.788;23.710;2022-07-05T12:51:03;9.73;;;7.70;;
21876;SDS011;11103;43.788;23.710;2022-07-05T12:53:29;12.30;;;7.57;;
21876;SDS011;11103;43.788;23.710;2022-07-05T12:56:13;10.07;;;7.22;;
21876;SDS011;11103;43.788;23.710;2022-07-05T12:59:01;9.48;;;7.30;;
21876;SDS011;11103;43.788;23.710;2022-07-05T13:01:29;14.40;;;8.05;;
21876;SDS011;11103;43.788;23.710;2022-07-05T13:04:05;12.98;;;8.05;;
21876;SDS011;11103;43.788;23.710;2022-07-05T13:09:07;14.75;;;8.32;;
21876;SDS011;11103;43.788;23.710;2022-07-05T13:11:33;11.48;;;8.15;;
21876;SDS011;11103;43.788;23.710;2022-07-05T13:13:59;11.48;;;8.32;;
21876;SDS011;11103;43.788;23.710;2022-07-05T13:16:24;13.82;;;7.85;;
21876;SDS011;11103;43.788;23.710;2022-07-05T13:18:49;7.85;;;7.03;;
21876;SDS011;11103;43.788;23.710;2022-07-05T13:21:15;8.57;;;7.35;;
21876;SDS011;11103;43.788;23.710;2022-07-05T13:23:40;10.00;;;7.50;;
21876;SDS011;11103;43.788;23.710;2022-07-05T13:26:06;8.63;;;7.40;;
21876;SDS011;11103;43.788;23.710;2022-07-05T13:28:31;10.32;;;7.40;;
21876;SDS011;11103;43.788;23.710;2022-07-05T13:30:59;14.13;;;7.07;;
21876;SDS011;11103;43.788;23.710;2022-07-05T13:33:25;9.90;;;6.47;;
21876;SDS011;11103;43.788;23.710;2022-07-05T13:35:50;12.50;;;6.55;;
21876;SDS011;11103;43.788;23.710;2022-07-05T13:38:16;10.70;;;6.80;;
21876;SDS011;11103;43.788;23.710;2022-07-05T13:40:41;9.40;;;6.95;;
21876;SDS011;11103;43.788;23.710;2022-07-05T13:43:06;9.18;;;6.65;;
21876;SDS011;11103;43.788;23.710;2022-07-05T13:45:32;7.90;;;6.20;;
21876;SDS011;11103;43.788;23.710;2022-07-05T13:47:57;8.88;;;6.70;;
21876;SDS011;11103;43.788;23.710;2022-07-05T13:50:23;11.15;;;7.25;;
21876;SDS011;11103;43.788;23.710;2022-07-05T13:53:01;8.20;;;6.68;;
21876;SDS011;11103;43.788;23.710;2022-07-05T13:55:27;7.07;;;6.38;;
21876;SDS011;11103;43.788;23.710;2022-07-05T13:57:53;10.88;;;6.40;;
21876;SDS011;11103;43.788;23.710;2022-07-05T14:00:19;9.73;;;6.00;;
21876;SDS011;11103;43.788;23.710;2022-07-05T14:02:45;7.20;;;6.50;;
21876;SDS011;11103;43.788;23.710;2022-07-05T14:05:11;9.85;;;6.22;;
21876;SDS011;11103;43.788;23.710;2022-07-05T14:07:36;8.18;;;6.35;;
21876;SDS011;11103;43.788;23.710;2022-07-05T14:10:03;10.45;;;7.03;;
21876;SDS011;11103;43.788;23.710;2022-07-05T14:12:29;9.73;;;7.00;;
21876;SDS011;11103;43.788;23.710;2022-07-05T14:14:55;11.48;;;6.90;;
21876;SDS011;11103;43.788;23.710;2022-07-05T14:17:20;8.27;;;6.78;;
21876;SDS011;11103;43.788;23.710;2022-07-05T14:19:45;10.63;;;7.72;;
21876;SDS011;11103;43.788;23.710;2022-07-05T14:22:11;9.25;;;7.10;;
21876;SDS011;11103;43.788;23.710;2022-07-05T14:24:36;11.00;;;7.45;;
21876;SDS011;11103;43.788;23.710;2022-07-05T14:27:02;12.88;;;7.68;;
21876;SDS011;11103;43.788;23.710;2022-07-05T14:29:27;11.82;;;6.60;;
21876;SDS011;11103;43.788;23.710;2022-07-05T14:31:53;7.15;;;6.45;;
21876;SDS011;11103;43.788;23.710;2022-07-05T14:34:18;13.82;;;6.60;;
21876;SDS011;11103;43.788;23.710;2022-07-05T14:36:44;11.38;;;6.78;;
21876;SDS011;11103;43.788;23.710;2022-07-05T14:39:09;9.18;;;6.55;;
21876;SDS011;11103;43.788;23.710;2022-07-05T14:41:35;11.77;;;6.72;;
21876;SDS011;11103;43.788;23.710;2022-07-05T14:44:01;8.60;;;5.97;;